createdAt,value
2022-08-05T00:01:35.562Z,53.51
2022-08-05T00:04:05.179Z,53.68
2022-08-05T00:06:36.376Z,53.57
2022-08-05T00:09:12.802Z,53.74
2022-08-05T00:11:49.622Z,53.70
2022-08-05T00:14:27.594Z,53.66
2022-08-05T00:17:01.913Z,53.77
2022-08-05T00:19:33.698Z,53.83
2022-08-05T00:22:11.339Z,54.01
2022-08-05T00:24:42.356Z,53.82
2022-08-05T00:27:28.542Z,53.96
2022-08-05T00:29:58.805Z,54.00
2022-08-05T00:32:28.557Z,54.07
2022-08-05T00:35:06.399Z,54.14
2022-08-05T00:37:52.580Z,54.09
2022-08-05T00:40:27.149Z,54.29
2022-08-05T00:42:59.709Z,54.21
2022-08-05T00:45:42.848Z,54.50
2022-08-05T00:48:13.272Z,54.48
2022-08-05T00:50:45.817Z,54.51
2022-08-05T00:54:00.867Z,54.54
2022-08-05T00:56:07.916Z,54.61
2022-08-05T00:58:38.018Z,54.68
2022-08-05T01:01:09.061Z,54.80
2022-08-05T01:03:39.352Z,54.93
2022-08-05T01:06:14.038Z,55.20
2022-08-05T01:08:46.374Z,55.26
2022-08-05T01:11:24.131Z,55.33
2022-08-05T01:14:15.366Z,55.41
2022-08-05T01:16:54.279Z,55.65
2022-08-05T01:19:30.211Z,55.74
2022-08-05T01:22:34.152Z,55.85
2022-08-05T01:25:08.232Z,55.83
2022-08-05T01:27:50.608Z,55.95
2022-08-05T01:30:34.247Z,55.94
2022-08-05T01:33:09.589Z,55.92
2022-08-05T01:35:50.988Z,55.78
2022-08-05T01:38:26.811Z,55.90
2022-08-05T01:41:01.790Z,55.83
2022-08-05T01:43:32.674Z,55.83
2022-08-05T01:46:06.910Z,55.92
2022-08-05T01:48:49.388Z,56.03
2022-08-05T01:51:19.182Z,56.10
2022-08-05T01:53:58.126Z,56.29
2022-08-05T01:58:09.947Z,56.49
2022-08-05T01:59:22.198Z,56.51
2022-08-05T02:01:54.762Z,56.60
2022-08-05T02:04:25.950Z,56.76
2022-08-05T02:06:54.025Z,56.88
2022-08-05T02:09:22.142Z,56.92
2022-08-05T02:12:11.028Z,57.10
2022-08-05T02:14:47.993Z,57.11
2022-08-05T02:18:27.624Z,57.25
2022-08-05T02:20:22.197Z,57.35
2022-08-05T02:23:00.047Z,57.58
2022-08-05T02:25:49.355Z,57.55
2022-08-05T02:28:29.258Z,57.73
2022-08-05T02:31:26.519Z,58.01
2022-08-05T02:34:02.779Z,58.30
2022-08-05T02:36:32.714Z,58.59
2022-08-05T02:39:03.296Z,58.66
2022-08-05T02:41:43.221Z,58.95
2022-08-05T02:44:24.464Z,59.04
2022-08-05T02:47:00.269Z,59.20
2022-08-05T02:49:36.699Z,59.48
2022-08-05T02:52:09.377Z,60.00
2022-08-05T02:54:41.179Z,60.03
2022-08-05T02:58:10.337Z,60.07
2022-08-05T03:00:04.900Z,60.41
2022-08-05T03:02:40.594Z,60.22
2022-08-05T03:05:12.510Z,60.27
2022-08-05T03:08:06.705Z,60.33
2022-08-05T03:10:30.960Z,60.25
2022-08-05T03:15:28.485Z,60.41
2022-08-05T03:17:57.798Z,60.55
2022-08-05T03:20:28.447Z,60.73
2022-08-05T03:22:57.622Z,60.63
2022-08-05T03:25:32.989Z,60.63
2022-08-05T03:29:03.014Z,61.55
2022-08-05T03:31:56.520Z,61.26
2022-08-05T03:34:27.340Z,61.59
2022-08-05T03:36:57.250Z,61.63
2022-08-05T03:39:27.219Z,61.77
2022-08-05T03:41:56.972Z,61.52
2022-08-05T03:44:26.090Z,61.56
2022-08-05T03:46:57.217Z,61.49
2022-08-05T03:49:30.977Z,61.56
2022-08-05T03:52:48.515Z,61.43
2022-08-05T03:55:52.916Z,61.64
2022-08-05T03:58:03.770Z,61.55
2022-08-05T04:00:33.333Z,61.70
2022-08-05T04:03:03.558Z,61.79
2022-08-05T04:05:36.360Z,61.99
2022-08-05T04:08:14.504Z,62.03
2022-08-05T04:10:59.003Z,62.39
2022-08-05T04:13:51.142Z,62.50
2022-08-05T04:16:24.959Z,62.53
2022-08-05T04:18:54.898Z,62.70
2022-08-05T04:22:08.235Z,62.75
2022-08-05T04:24:18.839Z,62.85
2022-08-05T04:26:47.705Z,62.85
2022-08-05T04:29:15.602Z,62.73
2022-08-05T04:31:43.569Z,62.84
2022-08-05T04:34:31.247Z,62.86
2022-08-05T04:36:59.628Z,62.91
2022-08-05T04:39:28.831Z,63.06
2022-08-05T04:41:56.724Z,63.26
2022-08-05T04:44:29.904Z,63.19
2022-08-05T04:46:59.578Z,63.36
2022-08-05T04:49:38.767Z,63.34
2022-08-05T04:52:16.212Z,63.36
2022-08-05T04:54:44.274Z,63.52
2022-08-05T04:57:12.188Z,63.36
2022-08-05T04:59:40.734Z,63.42
2022-08-05T05:02:41.518Z,63.37
2022-08-05T05:05:03.105Z,63.18
2022-08-05T05:07:35.347Z,63.21
2022-08-05T05:10:06.661Z,63.00
2022-08-05T05:12:36.646Z,63.06
2022-08-05T05:15:06.024Z,62.98
2022-08-05T05:17:55.597Z,62.86
2022-08-05T05:20:28.374Z,62.76
2022-08-05T05:23:24.478Z,62.79
2022-08-05T05:25:52.609Z,62.70
2022-08-05T05:28:20.651Z,62.51
2022-08-05T05:30:49.581Z,62.46
2022-08-05T05:33:18.035Z,62.28
2022-08-05T05:35:51.843Z,62.17
2022-08-05T05:38:22.641Z,62.13
2022-08-05T05:40:58.006Z,62.08
2022-08-05T05:43:54.181Z,61.99
2022-08-05T05:46:15.915Z,61.85
2022-08-05T05:48:48.865Z,61.65
2022-08-05T05:51:22.343Z,61.52
2022-08-05T05:53:57.482Z,61.41
2022-08-05T05:56:32.487Z,61.25
2022-08-05T05:59:07.426Z,61.33
2022-08-05T06:01:39.401Z,61.20
2022-08-05T06:04:11.821Z,61.08
2022-08-05T06:06:47.290Z,60.94
2022-08-05T06:09:25.646Z,60.73
2022-08-05T06:12:01.160Z,60.36
2022-08-05T06:14:31.673Z,60.42
2022-08-05T06:17:02.091Z,60.27
2022-08-05T06:19:56.577Z,60.12
2022-08-05T06:22:30.557Z,59.97
2022-08-05T06:25:25.165Z,59.99
2022-08-05T06:28:10.999Z,59.85
2022-08-05T06:30:41.410Z,59.73
2022-08-05T06:33:10.652Z,59.23
2022-08-05T06:36:07.767Z,59.19
2022-08-05T06:38:36.745Z,58.74
2022-08-05T06:41:08.247Z,58.45
2022-08-05T06:43:58.727Z,58.00
2022-08-05T06:46:30.355Z,57.83
2022-08-05T06:49:01.217Z,57.55
2022-08-05T06:51:31.037Z,57.69
2022-08-05T06:54:01.968Z,57.69
2022-08-05T06:56:34.680Z,57.68
2022-08-05T06:59:09.490Z,57.66
2022-08-05T07:01:40.748Z,57.72
2022-08-05T07:04:10.927Z,57.74
2022-08-05T07:06:42.239Z,57.35
2022-08-05T07:09:10.304Z,57.18
2022-08-05T07:11:39.991Z,56.98
2022-08-05T07:14:29.513Z,56.77
2022-08-05T07:17:58.405Z,56.59
2022-08-05T07:20:31.226Z,56.44
2022-08-05T07:22:39.509Z,56.03
2022-08-05T07:25:54.728Z,55.81
2022-08-05T07:28:04.187Z,55.69
2022-08-05T07:30:38.693Z,55.64
2022-08-05T07:33:15.571Z,55.54
2022-08-05T07:36:02.310Z,55.37
2022-08-05T07:38:43.645Z,55.20
2022-08-05T07:42:08.573Z,55.19
2022-08-05T07:44:18.594Z,54.70
2022-08-05T07:46:49.501Z,54.33
2022-08-05T07:49:19.975Z,54.48
2022-08-05T07:51:53.423Z,54.02
2022-08-05T07:54:31.485Z,53.79
2022-08-05T07:57:16.709Z,53.60
2022-08-05T07:59:51.656Z,53.49
2022-08-05T08:02:26.757Z,52.91
2022-08-05T08:05:02.032Z,52.97
2022-08-05T08:07:39.677Z,52.30
2022-08-05T08:10:20.434Z,52.54
2022-08-05T08:12:50.013Z,52.31
2022-08-05T08:15:18.236Z,51.85
2022-08-05T08:18:09.911Z,52.35
2022-08-05T08:21:02.288Z,52.01
2022-08-05T08:24:02.126Z,52.08
2022-08-05T08:26:27.024Z,52.14
2022-08-05T08:29:21.616Z,51.89
2022-08-05T08:31:49.260Z,51.82
2022-08-05T08:34:30.148Z,51.56
2022-08-05T08:37:04.914Z,51.41
2022-08-05T08:39:37.110Z,51.31
2022-08-05T08:42:33.815Z,50.82
2022-08-05T08:45:18.096Z,50.81
2022-08-05T08:48:11.789Z,50.26
2022-08-05T08:51:22.806Z,50.59
2022-08-05T08:53:37.195Z,50.33
2022-08-05T08:57:06.025Z,50.17
2022-08-05T09:01:00.751Z,48.69
2022-08-05T09:05:16.714Z,48.35
2022-08-05T09:08:58.692Z,43.72
2022-08-05T09:12:51.122Z,45.01
2022-08-05T09:16:42.194Z,45.23
2022-08-05T09:20:38.382Z,44.73
2022-08-05T09:24:27.408Z,44.93
2022-08-05T09:28:21.027Z,44.32
2022-08-05T09:32:42.252Z,43.87
2022-08-05T09:36:19.922Z,41.31
2022-08-05T09:39:16.788Z,42.00
2022-08-05T09:41:58.691Z,41.56
2022-08-05T09:44:35.818Z,41.86
2022-08-05T09:47:15.435Z,41.99
2022-08-05T09:50:00.695Z,41.39
2022-08-05T09:52:35.847Z,40.83
2022-08-05T09:55:57.988Z,40.68
2022-08-05T09:57:59.844Z,40.33
2022-08-05T10:00:30.470Z,39.20
2022-08-05T10:02:59.160Z,38.64
2022-08-05T10:05:32.746Z,38.77
2022-08-05T10:08:35.823Z,37.48
2022-08-05T10:10:54.443Z,37.03
2022-08-05T10:13:31.615Z,36.45
2022-08-05T10:16:29.171Z,37.14
2022-08-05T10:18:58.383Z,36.93
2022-08-05T10:21:27.647Z,37.38
2022-08-05T10:24:07.551Z,36.93
2022-08-05T10:26:49.160Z,36.42
2022-08-05T10:29:24.058Z,36.77
2022-08-05T10:32:53.604Z,36.12
2022-08-05T10:35:00.881Z,35.91
2022-08-05T10:37:40.394Z,35.93
2022-08-05T10:40:28.546Z,35.78
2022-08-05T10:43:04.943Z,35.62
2022-08-05T10:45:40.291Z,35.17
2022-08-05T10:48:35.279Z,34.70
2022-08-05T10:51:21.975Z,34.28
2022-08-05T10:54:22.992Z,33.88
2022-08-05T10:56:58.544Z,33.03
2022-08-05T11:00:04.283Z,32.98
2022-08-05T11:02:37.490Z,33.20
2022-08-05T11:05:10.607Z,31.34
2022-08-05T11:08:03.201Z,31.95
2022-08-05T11:10:50.066Z,32.15
2022-08-05T11:13:54.923Z,31.46
2022-08-05T11:16:33.683Z,30.96
2022-08-05T11:20:10.047Z,30.04
2022-08-05T11:22:49.769Z,30.64
2022-08-05T11:26:06.105Z,29.73
2022-08-05T11:28:33.452Z,29.62
2022-08-05T11:31:06.577Z,29.67
2022-08-05T11:33:53.212Z,29.70
2022-08-05T11:36:44.597Z,28.66
2022-08-05T11:39:18.850Z,27.85
2022-08-05T11:42:01.462Z,28.79
2022-08-05T11:44:52.720Z,28.46
2022-08-05T11:47:48.517Z,28.08
2022-08-05T11:50:14.439Z,28.52
2022-08-05T11:52:44.113Z,28.26
2022-08-05T11:55:15.020Z,28.23
2022-08-05T11:58:10.319Z,27.86
2022-08-05T12:00:38.593Z,27.08
2022-08-05T12:03:31.632Z,27.06
2022-08-05T12:06:06.193Z,27.26
2022-08-05T12:08:51.006Z,27.33
2022-08-05T12:11:21.743Z,27.49
2022-08-05T12:14:10.212Z,27.04
2022-08-05T12:16:41.402Z,26.26
2022-08-05T12:20:25.839Z,26.49
2022-08-05T12:22:09.416Z,26.35
2022-08-05T12:24:43.734Z,25.21
2022-08-05T12:27:33.022Z,25.18
2022-08-05T12:30:07.573Z,25.30
2022-08-05T12:32:50.355Z,25.61
2022-08-05T12:35:21.714Z,25.80
2022-08-05T12:37:50.315Z,25.72
2022-08-05T12:40:26.723Z,25.82
2022-08-05T12:42:58.973Z,26.03
2022-08-05T12:45:36.862Z,25.67
2022-08-05T12:48:27.055Z,25.79
2022-08-05T12:52:10.671Z,25.84
2022-08-05T12:54:02.840Z,26.05
2022-08-05T12:56:35.079Z,26.11
2022-08-05T12:59:23.824Z,25.38
2022-08-05T13:02:08.247Z,24.83
2022-08-05T13:04:52.276Z,24.32
2022-08-05T13:07:55.738Z,25.12
2022-08-05T13:10:19.631Z,24.55
2022-08-05T13:12:57.919Z,24.64
2022-08-05T13:15:42.236Z,24.68
2022-08-05T13:18:20.066Z,24.18
2022-08-05T13:20:49.916Z,24.03
2022-08-05T13:23:22.616Z,23.44
2022-08-05T13:25:59.696Z,22.64
2022-08-05T13:28:29.490Z,23.42
2022-08-05T13:31:11.208Z,22.78
2022-08-05T13:34:23.605Z,22.20
2022-08-05T13:36:31.785Z,22.42
2022-08-05T13:40:15.094Z,22.23
2022-08-05T13:44:05.918Z,21.96
2022-08-05T13:47:04.971Z,21.99
2022-08-05T13:49:36.948Z,21.66
2022-08-05T13:52:18.314Z,22.38
2022-08-05T13:54:53.463Z,21.80
2022-08-05T13:57:22.476Z,22.22
2022-08-05T13:59:57.419Z,22.44
2022-08-05T14:02:37.323Z,22.12
2022-08-05T14:05:15.275Z,21.96
2022-08-05T14:08:02.705Z,21.19
2022-08-05T14:10:34.988Z,22.17
2022-08-05T14:13:03.045Z,21.59
2022-08-05T14:16:08.476Z,21.96
2022-08-05T14:18:23.413Z,21.90
2022-08-05T14:20:54.352Z,21.36
2022-08-05T14:23:26.062Z,21.27
2022-08-05T14:25:58.751Z,21.40
2022-08-05T14:28:29.792Z,20.88
2022-08-05T14:31:00.575Z,21.07
2022-08-05T14:33:57.003Z,21.20
2022-08-05T14:36:21.470Z,21.03
2022-08-05T14:38:50.966Z,21.51
2022-08-05T14:41:20.024Z,21.22
2022-08-05T14:43:59.106Z,21.19
2022-08-05T14:46:31.043Z,20.95
2022-08-05T14:49:07.000Z,21.81
2022-08-05T14:51:38.172Z,21.90
2022-08-05T14:54:30.049Z,21.95
2022-08-05T14:56:56.011Z,21.74
2022-08-05T14:59:24.248Z,21.50
2022-08-05T15:01:53.838Z,21.50
2022-08-05T15:04:22.690Z,21.49
2022-08-05T15:06:51.765Z,21.69
2022-08-05T15:09:50.542Z,21.66
2022-08-05T15:12:11.691Z,21.63
2022-08-05T15:14:49.593Z,21.38
2022-08-05T15:17:45.680Z,21.38
2022-08-05T15:20:16.999Z,21.65
2022-08-05T15:22:52.404Z,21.99
2022-08-05T15:25:41.235Z,21.93
2022-08-05T15:28:15.469Z,21.16
2022-08-05T15:30:45.734Z,21.26
2022-08-05T15:34:04.111Z,21.57
2022-08-05T15:36:04.954Z,21.50
2022-08-05T15:38:42.100Z,21.49
2022-08-05T15:41:22.782Z,21.42
2022-08-05T15:43:54.671Z,21.41
2022-08-05T15:46:24.932Z,21.42
2022-08-05T15:49:00.763Z,21.31
2022-08-05T15:52:13.655Z,21.29
2022-08-05T15:54:34.952Z,20.99
2022-08-05T15:57:07.773Z,20.39
2022-08-05T15:59:38.102Z,20.97
2022-08-05T16:02:14.331Z,21.08
2022-08-05T16:04:44.021Z,20.90
2022-08-05T16:07:12.314Z,20.90
2022-08-05T16:09:42.136Z,20.98
2022-08-05T16:12:11.892Z,20.82
2022-08-05T16:14:40.180Z,20.93
2022-08-05T16:17:09.503Z,20.98
2022-08-05T16:20:03.671Z,20.72
2022-08-05T16:22:34.095Z,20.89
2022-08-05T16:25:08.201Z,20.87
2022-08-05T16:27:47.173Z,20.99
2022-08-05T16:30:28.711Z,20.52
2022-08-05T16:32:58.272Z,20.78
2022-08-05T16:35:28.625Z,21.02
2022-08-05T16:38:15.095Z,21.19
2022-08-05T16:40:51.761Z,21.14
2022-08-05T16:43:25.691Z,21.35
2022-08-05T16:46:07.794Z,21.29
2022-08-05T16:48:41.501Z,21.30
2022-08-05T16:51:10.914Z,21.29
2022-08-05T16:54:05.991Z,21.51
2022-08-05T16:56:31.029Z,21.60
2022-08-05T16:59:00.972Z,21.80
2022-08-05T17:01:54.240Z,22.19
2022-08-05T17:04:27.369Z,22.33
2022-08-05T17:07:03.199Z,22.43
2022-08-05T17:09:57.367Z,23.17
2022-08-05T17:12:50.419Z,23.16
2022-08-05T17:15:15.490Z,23.58
2022-08-05T17:17:55.042Z,23.96
2022-08-05T17:20:23.594Z,23.74
2022-08-05T17:22:55.229Z,23.93
2022-08-05T17:25:39.377Z,24.14
2022-08-05T17:28:09.262Z,24.64
2022-08-05T17:30:50.232Z,24.73
2022-08-05T17:33:19.973Z,25.03
2022-08-05T17:36:08.918Z,26.02
2022-08-05T17:38:35.979Z,25.54
2022-08-05T17:41:03.796Z,26.17
2022-08-05T17:43:50.571Z,26.84
2022-08-05T17:46:20.438Z,28.08
2022-08-05T17:48:48.942Z,29.43
2022-08-05T17:51:21.434Z,30.70
2022-08-05T17:53:54.534Z,31.66
2022-08-05T17:56:23.012Z,32.78
2022-08-05T17:58:56.322Z,33.11
2022-08-05T18:01:24.247Z,34.21
2022-08-05T18:04:04.453Z,33.95
2022-08-05T18:06:33.589Z,35.37
2022-08-05T18:09:03.390Z,36.89
2022-08-05T18:11:33.151Z,38.17
2022-08-05T18:14:03.637Z,39.59
2022-08-05T18:16:32.865Z,39.33
2022-08-05T18:19:00.935Z,39.88
2022-08-05T18:22:09.137Z,41.66
2022-08-05T18:24:16.601Z,42.63
2022-08-05T18:26:44.835Z,42.36
2022-08-05T18:29:16.785Z,42.92
2022-08-05T18:31:45.007Z,43.83
2022-08-05T18:34:12.928Z,43.83
2022-08-05T18:36:43.654Z,44.72
2022-08-05T18:39:22.601Z,44.99
2022-08-05T18:42:04.756Z,45.35
2022-08-05T18:44:35.562Z,45.32
2022-08-05T18:47:17.355Z,45.28
2022-08-05T18:50:03.912Z,45.83
2022-08-05T18:52:51.451Z,46.55
2022-08-05T18:55:21.474Z,47.70
2022-08-05T18:57:54.159Z,47.22
2022-08-05T19:00:31.475Z,47.62
2022-08-05T19:03:03.697Z,47.90
2022-08-05T19:06:12.711Z,48.35
2022-08-05T19:08:22.455Z,49.45
2022-08-05T19:10:59.766Z,49.61
2022-08-05T19:14:37.919Z,49.87
2022-08-05T19:18:10.297Z,49.86
2022-08-05T19:21:01.652Z,50.10
2022-08-05T19:24:07.090Z,50.22
2022-08-05T19:26:22.068Z,50.31
2022-08-05T19:28:49.890Z,50.21
2022-08-05T19:31:19.519Z,50.34
2022-08-05T19:33:56.017Z,50.83
2022-08-05T19:36:25.484Z,50.98
2022-08-05T19:38:54.414Z,51.31
2022-08-05T19:41:34.774Z,51.50
2022-08-05T19:44:13.693Z,51.34
2022-08-05T19:46:43.735Z,51.43
2022-08-05T19:49:12.580Z,51.82
2022-08-05T19:52:04.459Z,52.33
2022-08-05T19:54:34.932Z,52.40
2022-08-05T19:57:06.889Z,52.49
2022-08-05T19:59:55.836Z,52.34
2022-08-05T20:02:27.992Z,52.47
2022-08-05T20:04:58.739Z,52.53
2022-08-05T20:07:45.747Z,53.29
2022-08-05T20:10:16.705Z,53.61
2022-08-05T20:12:45.934Z,54.14
2022-08-05T20:15:48.735Z,54.42
2022-08-05T20:18:10.819Z,55.13
2022-08-05T20:20:55.797Z,55.45
2022-08-05T20:23:40.240Z,55.59
2022-08-05T20:26:15.901Z,55.36
2022-08-05T20:28:45.665Z,55.86
2022-08-05T20:31:13.481Z,55.61
2022-08-05T20:33:45.364Z,56.02
2022-08-05T20:36:16.286Z,56.05
2022-08-05T20:38:54.663Z,56.15
2022-08-05T20:41:44.334Z,56.23
2022-08-05T20:44:18.789Z,56.12
2022-08-05T20:46:57.994Z,56.33
2022-08-05T20:49:26.277Z,56.23
2022-08-05T20:51:54.944Z,56.35
2022-08-05T20:54:24.717Z,56.74
2022-08-05T20:56:53.116Z,57.10
2022-08-05T20:59:27.017Z,56.96
2022-08-05T21:02:09.154Z,56.84
2022-08-05T21:04:38.499Z,57.19
2022-08-05T21:07:06.359Z,56.98
2022-08-05T21:09:37.215Z,57.48
2022-08-05T21:12:19.976Z,57.67
2022-08-05T21:14:47.828Z,57.92
2022-08-05T21:17:16.069Z,57.54
2022-08-05T21:19:48.045Z,57.62
2022-08-05T21:22:23.248Z,57.61
2022-08-05T21:24:52.738Z,57.56
2022-08-05T21:27:24.984Z,57.31
2022-08-05T21:29:56.244Z,57.32
2022-08-05T21:32:27.189Z,57.71
2022-08-05T21:35:17.728Z,57.59
2022-08-05T21:37:53.042Z,57.35
2022-08-05T21:40:24.765Z,57.44
2022-08-05T21:42:53.506Z,57.33
2022-08-05T21:45:25.166Z,57.47
2022-08-05T21:48:10.104Z,57.26
2022-08-05T21:50:42.479Z,57.47
2022-08-05T21:53:27.220Z,57.71
2022-08-05T21:56:06.039Z,57.74
2022-08-05T21:58:42.348Z,57.84
2022-08-05T22:01:23.901Z,57.78
2022-08-05T22:03:53.620Z,57.93
2022-08-05T22:06:39.480Z,57.68
2022-08-05T22:09:13.722Z,57.86
2022-08-05T22:11:46.698Z,57.77
2022-08-05T22:14:37.203Z,57.75
2022-08-05T22:17:06.795Z,58.14
2022-08-05T22:19:57.460Z,58.22
2022-08-05T22:22:28.049Z,58.28
2022-08-05T22:25:21.313Z,58.10
2022-08-05T22:28:08.390Z,58.13
2022-08-05T22:30:44.335Z,58.53
2022-08-05T22:33:56.996Z,58.51
2022-08-05T22:36:14.653Z,58.78
2022-08-05T22:38:48.054Z,58.85
2022-08-05T22:42:04.299Z,59.00
2022-08-05T22:44:06.852Z,59.07
2022-08-05T22:46:40.196Z,59.27
2022-08-05T22:49:23.590Z,59.53
2022-08-05T22:52:05.483Z,59.47
2022-08-05T22:54:36.337Z,59.65
2022-08-05T22:57:07.455Z,59.58
2022-08-05T22:59:46.114Z,59.54
2022-08-05T23:02:18.635Z,59.57
2022-08-05T23:05:01.910Z,59.47
2022-08-05T23:07:44.070Z,59.71
2022-08-05T23:10:14.497Z,59.60
2022-08-05T23:12:43.044Z,59.50
2022-08-05T23:15:11.986Z,59.29
2022-08-05T23:18:02.396Z,59.49
2022-08-05T23:20:27.589Z,59.58
2022-08-05T23:22:58.701Z,59.51
2022-08-05T23:25:54.758Z,59.66
2022-08-05T23:28:15.669Z,59.62
2022-08-05T23:30:53.361Z,59.62
2022-08-05T23:33:26.487Z,59.37
2022-08-05T23:36:12.337Z,58.98
2022-08-05T23:38:42.847Z,59.02
2022-08-05T23:41:11.417Z,59.02
2022-08-05T23:44:03.171Z,58.98
2022-08-05T23:46:27.002Z,59.40
2022-08-05T23:49:00.461Z,59.48
2022-08-05T23:51:53.764Z,59.54
2022-08-05T23:54:25.764Z,59.76
2022-08-05T23:56:55.340Z,60.61
2022-08-05T23:59:27.828Z,61.99
